CDT,Max TemperatureF,Mean TemperatureF,Min TemperatureF,Max Dew PointF,MeanDew PointF,Min DewpointF,Max Humidity, Mean Humidity, Min Humidity, Max Sea Level PressureIn, Mean Sea Level PressureIn, Min Sea Level PressureIn, Max VisibilityMiles, Mean VisibilityMiles, Min VisibilityMiles, Max Wind SpeedMPH, Mean Wind SpeedMPH, Max Gust SpeedMPH,PrecipitationIn, CloudCover, Events, WindDirDegrees
2013-5-1,82,66,50,54,48,42,71,55,39,30.22,30.05,29.89,10,10,10,22,7,29,0.00,2,,352
2013-5-2,55,46,37,42,37,34,85,70,55,30.31,30.26,30.22,10,10,2,22,15,28,0.20,6,Rain,6
2013-5-3,48,42,36,46,38,33,100,95,89,30.24,30.12,30.01,10,7,2,18,12,22,0.73,8,Rain,22
2013-5-4,72,59,46,54,48,44,93,69,44,30.07,30.03,29.99,10,10,8,17,6,22,T,5,Rain,50
2013-5-5,74,60,45,48,45,42,93,63,33,30.08,30.04,30.01,10,10,8,16,5,22,0.00,1,,59
2013-5-6,74,59,43,47,43,38,100,65,29,30.09,30.04,30.00,10,10,8,13,3,16,0.00,2,,18
2013-5-7,78,66,53,47,41,33,71,46,21,30.07,30.02,29.99,10,10,9,10,2,16,0.00,4,,91
2013-5-8,80,64,47,47,44,38,93,58,23,30.04,30.00,29.95,10,10,10,9,4,18,0.00,2,,199
2013-5-9,66,57,47,58,53,46,100,76,52,29.96,29.92,29.86,10,7,2,21,7,28,1.06,6,Rain,55
2013-5-10,53,48,42,46,43,39,100,89,77,30.02,29.96,29.90,10,9,4,23,10,28,0.51,7,Rain,14
2013-5-11,53,47,41,48,37,25,93,64,35,30.08,29.93,29.81,10,10,7,28,11,43,T,4,Rain,288
2013-5-12,55,46,36,30,24,20,70,48,26,30.14,30.11,30.08,10,10,10,18,8,28,0.00,3,,320
2013-5-13,64,48,31,38,30,23,92,58,23,30.19,30.09,29.91,10,10,10,16,5,22,0.00,2,,178
2013-5-14,88,71,54,58,48,38,59,42,25,29.88,29.69,29.56,10,10,10,26,8,35,0.04,2,Rain-Thunderstorm,195
2013-5-15,77,65,52,57,45,38,57,41,25,29.86,29.77,29.57,10,10,10,17,6,24,0.00,1,,312
2013-5-16,84,66,48,51,44,36,86,55,24,29.97,29.90,29.86,10,10,10,18,5,23,0.00,1,,76
2013-5-17,63,56,48,54,46,37,89,68,47,30.10,30.05,29.97,10,9,1,16,8,22,0.53,6,Rain-Thunderstorm,64
2013-5-18,80,65,50,63,56,47,89,72,54,30.06,30.01,29.91,10,9,5,15,6,18,0.00,5,,117
2013-5-19,85,74,62,64,61,57,90,67,44,29.94,29.82,29.66,10,8,4,30,12,37,0.02,2,Rain-Thunderstorm,157
2013-5-20,81,72,62,63,60,57,100,73,45,29.80,29.69,29.59,10,9,1,16,10,30,0.59,3,Rain-Thunderstorm,182
2013-5-21,75,66,57,61,58,55,93,72,50,29.68,29.64,29.60,10,10,10,17,7,26,0.00,5,,198
2013-5-22,70,62,53,61,58,54,100,87,73,29.78,29.67,29.62,10,8,2,16,5,26,0.24,7,Rain,12
2013-5-23,62,52,42,54,47,37,93,68,42,30.31,29.99,29.79,10,8,3,23,12,29,0.06,6,Rain,18
2013-5-24,62,49,35,42,37,34,100,70,39,30.47,30.38,30.32,10,9,1,12,3,,0.00,0,,83
2013-5-25,60,54,47,41,38,32,76,60,44,30.40,30.35,30.31,10,10,10,15,6,17,0.01,6,Rain,131
2013-5-26,66,54,41,50,42,35,79,62,44,30.32,30.25,30.17,10,10,8,20,7,26,0.03,5,Rain,111
2013-5-27,56,54,51,54,49,40,100,80,59,30.14,30.00,29.89,10,5,1,21,11,24,0.01,8,Rain,98
2013-5-28,73,62,51,66,58,51,100,87,73,29.88,29.77,29.71,10,6,1,13,3,23,1.00,7,Rain-Thunderstorm,70
2013-5-29,82,72,62,67,63,60,100,79,58,29.90,29.84,29.76,10,5,0,22,7,43,0.79,6,Fog-Rain-Thunderstorm,192
2013-5-30,83,72,61,69,64,61,100,78,55,29.89,29.78,29.69,10,8,0,33,13,45,0.74,5,Rain-Thunderstorm,179
2013-5-31,75,70,64,65,62,60,87,74,60,29.78,29.73,29.66,10,10,10,20,12,29,0.01,4,,186